Aeroporto :
LOGIN :

Iscrizione | Disclaimer

   EN    FR    IT 

 










Sommario :    VFR   VFR Marginale   IFR   IFR Intensivo   IFR Molto Intensivo
Visibilità : 
Base nubi : 
>= 8 km
>= 3000ft
5 / 8 km
1000 / 3000 ft
1500m / 5 km
500 / 1000 ft
800 / 1500m
200 / 500 ft
< 800m
< 200 ft
Simboli :   Temporali  Nebbia  Neve Forte  Precipitazioni Forti  Vento > 20 kt
SIGMETs :   Varie  Temporali  Ghiacco  Turbolenza  Onda orograficha  Ceneri Vulcaniche






- Altitudine del aeroporto : 1649 ft
- Codice IATA : HHN


EDFH - Frankfurt-Hahn Rhineland-Palatinate

ULTIMO METAR :
  • 150950Z 29003KT 220V010 9999 SCT070TCU 21/18 Q1017

METARs OBSOLETI :
  • 150920Z VRB02KT 9999 SCT044 20/18 Q1017
  • 150850Z 28005KT 250V310 9999 FEW004 SCT044 18/18 Q1017
  • 150820Z 27006KT 9999 FEW004 SCT045 17/17 Q1017
  • 150750Z 26006KT 9999 -SHRA FEW002 SCT044CB 18/17 Q1016
  • 150720Z 27005KT 230V300 9999 VCSH BKN044CB 18/16 Q1016
  • 150650Z 26005KT 9999 BKN044 19/16 Q1016

TAF TAF EDFH
Valido dal 15 a 06 ore il 16 a 06 ore UTC


150500Z 1506/1606 23005KT CAVOK
BECMG 1512/1514 05006KT
TEMPO 1512/1518 2500 TSRA BKN030CB
BECMG 1522/1524 15003KT
PROB40
TEMPO 1522/1606 0500 FG OVC002



MetMap, La meteo Aeronautica in un colpo d'occhio ! - Copyright ORBIFLY Dicembre 2007 - Disclaimer

ORBIFLY MET'MAP TEAM :

Programmazione e sviluppo : Alexandra Zaïnal
Concezione : Baudouin d'Aumeries
Aiuto per la programmazione : Marc-Olivier Méhu
Supporto tecnico e logistico : Manuel Goepfert
Aiuto per la traduzione : Arnaldo La Scala

Contatto : metmap@orbifly.com




FONTI E CREDITI :

   NOAA